sensor_id;sensor_type;location;lat;lon;timestamp;pressure;altitude;pressure_sealevel;temperature;humidity
61963;BME280;47927;42.646;23.096;2023-02-15T00:00:12;93189.41;;;5.00;49.89
61963;BME280;47927;42.646;23.096;2023-02-15T00:02:38;93193.28;;;4.80;50.60
61963;BME280;47927;42.646;23.096;2023-02-15T00:05:04;93195.81;;;4.71;51.07
61963;BME280;47927;42.646;23.096;2023-02-15T00:07:30;93199.56;;;4.96;50.38
61963;BME280;47927;42.646;23.096;2023-02-15T00:09:55;93190.41;;;4.90;50.40
61963;BME280;47927;42.646;23.096;2023-02-15T00:12:21;93195.72;;;4.85;50.40
61963;BME280;47927;42.646;23.096;2023-02-15T00:14:47;93197.16;;;5.00;49.94
61963;BME280;47927;42.646;23.096;2023-02-15T00:17:13;93203.19;;;4.95;50.20
61963;BME280;47927;42.646;23.096;2023-02-15T00:19:38;93199.84;;;4.64;51.01
61963;BME280;47927;42.646;23.096;2023-02-15T00:22:05;93186.94;;;4.64;50.93
61963;BME280;47927;42.646;23.096;2023-02-15T00:24:31;93202.47;;;4.72;50.64
61963;BME280;47927;42.646;23.096;2023-02-15T00:26:57;93210.63;;;4.57;50.87
61963;BME280;47927;42.646;23.096;2023-02-15T00:29:22;93197.97;;;4.78;50.62
61963;BME280;47927;42.646;23.096;2023-02-15T00:31:48;93202.28;;;4.91;49.96
61963;BME280;47927;42.646;23.096;2023-02-15T00:34:22;93201.88;;;5.07;49.50
61963;BME280;47927;42.646;23.096;2023-02-15T00:36:48;93205.84;;;5.13;49.39
61963;BME280;47927;42.646;23.096;2023-02-15T00:39:15;93206.31;;;5.15;49.00
61963;BME280;47927;42.646;23.096;2023-02-15T00:41:40;93209.44;;;4.94;49.74
61963;BME280;47927;42.646;23.096;2023-02-15T00:44:06;93218.72;;;5.04;49.74
61963;BME280;47927;42.646;23.096;2023-02-15T00:46:32;93213.22;;;4.88;49.89
61963;BME280;47927;42.646;23.096;2023-02-15T00:48:58;93200.72;;;4.50;51.17
61963;BME280;47927;42.646;23.096;2023-02-15T00:51:24;93198.28;;;4.76;50.60
61963;BME280;47927;42.646;23.096;2023-02-15T00:53:49;93199.03;;;4.77;50.56
61963;BME280;47927;42.646;23.096;2023-02-15T00:56:15;93205.19;;;4.98;50.08
61963;BME280;47927;42.646;23.096;2023-02-15T00:58:41;93206.56;;;5.05;49.87
61963;BME280;47927;42.646;23.096;2023-02-15T01:01:10;93204.78;;;4.74;50.66
61963;BME280;47927;42.646;23.096;2023-02-15T01:03:36;93203.38;;;4.68;50.62
61963;BME280;47927;42.646;23.096;2023-02-15T01:06:03;93200.16;;;4.62;51.19
61963;BME280;47927;42.646;23.096;2023-02-15T01:08:29;93199.47;;;4.70;50.83
61963;BME280;47927;42.646;23.096;2023-02-15T01:10:55;93199.25;;;4.67;50.96
61963;BME280;47927;42.646;23.096;2023-02-15T01:13:21;93197.50;;;4.76;50.88
61963;BME280;47927;42.646;23.096;2023-02-15T01:15:53;93178.63;;;4.67;50.58
61963;BME280;47927;42.646;23.096;2023-02-15T01:18:19;93185.16;;;4.64;50.89
61963;BME280;47927;42.646;23.096;2023-02-15T01:20:48;93191.75;;;4.79;50.58
61963;BME280;47927;42.646;23.096;2023-02-15T01:23:13;93184.34;;;4.86;50.41
61963;BME280;47927;42.646;23.096;2023-02-15T01:25:39;93178.97;;;4.74;50.53
61963;BME280;47927;42.646;23.096;2023-02-15T01:28:05;93177.19;;;4.52;51.20
61963;BME280;47927;42.646;23.096;2023-02-15T01:30:32;93180.22;;;4.54;50.95
61963;BME280;47927;42.646;23.096;2023-02-15T01:32:57;93178.56;;;3.82;52.90
61963;BME280;47927;42.646;23.096;2023-02-15T01:35:23;93173.66;;;3.94;52.90
61963;BME280;47927;42.646;23.096;2023-02-15T01:37:49;93161.28;;;3.60;53.15
61963;BME280;47927;42.646;23.096;2023-02-15T01:40:17;93172.19;;;3.79;53.68
61963;BME280;47927;42.646;23.096;2023-02-15T01:42:44;93170.78;;;3.96;52.84
61963;BME280;47927;42.646;23.096;2023-02-15T01:45:16;93172.19;;;4.02;52.68
61963;BME280;47927;42.646;23.096;2023-02-15T01:48:02;93174.81;;;3.88;53.28
61963;BME280;47927;42.646;23.096;2023-02-15T01:50:41;93167.25;;;3.69;53.80
61963;BME280;47927;42.646;23.096;2023-02-15T01:53:15;93152.84;;;3.32;55.04
61963;BME280;47927;42.646;23.096;2023-02-15T01:55:48;93170.84;;;3.46;54.66
61963;BME280;47927;42.646;23.096;2023-02-15T01:58:16;93157.13;;;3.73;53.63
61963;BME280;47927;42.646;23.096;2023-02-15T02:00:42;93162.34;;;3.81;53.58
61963;BME280;47927;42.646;23.096;2023-02-15T02:03:08;93167.69;;;3.49;54.28
61963;BME280;47927;42.646;23.096;2023-02-15T02:05:34;93162.28;;;3.09;55.35
61963;BME280;47927;42.646;23.096;2023-02-15T02:08:01;93148.19;;;2.79;56.04
61963;BME280;47927;42.646;23.096;2023-02-15T02:10:27;93134.25;;;2.24;57.37
61963;BME280;47927;42.646;23.096;2023-02-15T02:12:58;93156.69;;;2.65;57.08
61963;BME280;47927;42.646;23.096;2023-02-15T02:18:23;93161.00;;;2.23;58.77
61963;BME280;47927;42.646;23.096;2023-02-15T02:34:29;93174.75;;;2.33;59.11
61963;BME280;47927;42.646;23.096;2023-02-15T02:37:08;93182.97;;;2.48;58.83
61963;BME280;47927;42.646;23.096;2023-02-15T02:39:55;93177.84;;;2.90;57.34
61963;BME280;47927;42.646;23.096;2023-02-15T02:42:49;93182.03;;;3.27;56.25
61963;BME280;47927;42.646;23.096;2023-02-15T02:45:21;93183.56;;;2.87;57.48
61963;BME280;47927;42.646;23.096;2023-02-15T02:47:53;93151.16;;;3.00;56.73
61963;BME280;47927;42.646;23.096;2023-02-15T02:50:26;93181.66;;;3.34;56.29
61963;BME280;47927;42.646;23.096;2023-02-15T02:52:53;93178.50;;;3.37;56.25
61963;BME280;47927;42.646;23.096;2023-02-15T02:55:31;93187.56;;;3.71;55.31
61963;BME280;47927;42.646;23.096;2023-02-15T02:58:20;93186.72;;;3.98;54.61
61963;BME280;47927;42.646;23.096;2023-02-15T03:00:55;93194.50;;;4.06;54.33
61963;BME280;47927;42.646;23.096;2023-02-15T03:03:32;93196.47;;;4.23;53.72
61963;BME280;47927;42.646;23.096;2023-02-15T03:06:08;93188.41;;;4.25;53.66
61963;BME280;47927;42.646;23.096;2023-02-15T03:08:40;93200.28;;;4.26;53.76
61963;BME280;47927;42.646;23.096;2023-02-15T03:11:07;93193.03;;;4.37;53.16
61963;BME280;47927;42.646;23.096;2023-02-15T03:13:34;93200.19;;;4.40;53.25
61963;BME280;47927;42.646;23.096;2023-02-15T03:16:00;93196.16;;;4.02;54.27
61963;BME280;47927;42.646;23.096;2023-02-15T03:18:48;93199.09;;;4.32;53.62
61963;BME280;47927;42.646;23.096;2023-02-15T03:21:21;93198.56;;;4.21;54.07
61963;BME280;47927;42.646;23.096;2023-02-15T03:23:54;93207.56;;;4.55;52.91
61963;BME280;47927;42.646;23.096;2023-02-15T03:26:24;93212.16;;;4.58;52.67
61963;BME280;47927;42.646;23.096;2023-02-15T03:28:53;93212.56;;;4.83;52.36
61963;BME280;47927;42.646;23.096;2023-02-15T03:31:23;93203.03;;;4.92;51.63
61963;BME280;47927;42.646;23.096;2023-02-15T03:33:58;93207.00;;;4.67;52.26
61963;BME280;47927;42.646;23.096;2023-02-15T03:36:31;93204.53;;;4.53;52.25
61963;BME280;47927;42.646;23.096;2023-02-15T03:42:02;93202.91;;;4.66;52.29
61963;BME280;47927;42.646;23.096;2023-02-15T03:44:33;93205.69;;;4.78;52.00
61963;BME280;47927;42.646;23.096;2023-02-15T03:47:15;93208.09;;;4.97;51.52
61963;BME280;47927;42.646;23.096;2023-02-15T03:49:47;93202.72;;;4.93;51.40
61963;BME280;47927;42.646;23.096;2023-02-15T03:52:15;93205.34;;;4.62;52.46
61963;BME280;47927;42.646;23.096;2023-02-15T03:54:43;93197.28;;;4.64;52.28
61963;BME280;47927;42.646;23.096;2023-02-15T03:57:12;93209.31;;;4.46;52.80
61963;BME280;47927;42.646;23.096;2023-02-15T03:59:57;93206.81;;;4.54;52.81
61963;BME280;47927;42.646;23.096;2023-02-15T04:05:20;93207.53;;;4.77;52.27
61963;BME280;47927;42.646;23.096;2023-02-15T04:07:46;93206.09;;;4.94;51.78
61963;BME280;47927;42.646;23.096;2023-02-15T04:10:11;93214.31;;;5.05;51.67
61963;BME280;47927;42.646;23.096;2023-02-15T04:12:56;93212.53;;;5.14;51.06
61963;BME280;47927;42.646;23.096;2023-02-15T04:15:21;93212.41;;;5.19;50.90
61963;BME280;47927;42.646;23.096;2023-02-15T04:18:05;93212.19;;;4.98;51.22
61963;BME280;47927;42.646;23.096;2023-02-15T04:20:30;93220.69;;;4.98;51.14
61963;BME280;47927;42.646;23.096;2023-02-15T04:23:15;93228.19;;;5.09;50.95
61963;BME280;47927;42.646;23.096;2023-02-15T04:25:58;93225.59;;;5.09;51.11
61963;BME280;47927;42.646;23.096;2023-02-15T04:28:24;93228.16;;;5.00;51.25
61963;BME280;47927;42.646;23.096;2023-02-15T04:30:49;93238.03;;;4.75;52.02
61963;BME280;47927;42.646;23.096;2023-02-15T04:33:15;93238.59;;;4.95;51.55
61963;BME280;47927;42.646;23.096;2023-02-15T04:35:43;93245.22;;;5.18;50.83
61963;BME280;47927;42.646;23.096;2023-02-15T04:38:10;93242.28;;;5.11;50.75
61963;BME280;47927;42.646;23.096;2023-02-15T04:40:35;93238.69;;;5.12;50.93
61963;BME280;47927;42.646;23.096;2023-02-15T04:43:01;93244.78;;;4.85;51.68
61963;BME280;47927;42.646;23.096;2023-02-15T04:45:26;93252.69;;;4.89;51.87
61963;BME280;47927;42.646;23.096;2023-02-15T04:47:53;93246.56;;;4.76;52.21
61963;BME280;47927;42.646;23.096;2023-02-15T04:50:18;93248.41;;;4.84;52.10
61963;BME280;47927;42.646;23.096;2023-02-15T04:52:44;93259.59;;;5.02;51.88
61963;BME280;47927;42.646;23.096;2023-02-15T04:55:09;93257.06;;;5.19;51.26
61963;BME280;47927;42.646;23.096;2023-02-15T04:57:35;93258.09;;;5.10;51.02
61963;BME280;47927;42.646;23.096;2023-02-15T05:00:00;93254.13;;;5.03;51.37
61963;BME280;47927;42.646;23.096;2023-02-15T05:02:26;93259.34;;;5.12;51.35
61963;BME280;47927;42.646;23.096;2023-02-15T05:04:51;93260.91;;;4.91;51.45
61963;BME280;47927;42.646;23.096;2023-02-15T05:07:17;93255.72;;;4.82;51.56
61963;BME280;47927;42.646;23.096;2023-02-15T05:09:45;93260.88;;;4.82;52.00
61963;BME280;47927;42.646;23.096;2023-02-15T05:12:11;93262.69;;;5.13;51.45
61963;BME280;47927;42.646;23.096;2023-02-15T05:14:36;93270.50;;;4.99;51.58
61963;BME280;47927;42.646;23.096;2023-02-15T05:17:02;93267.28;;;4.93;51.86
61963;BME280;47927;42.646;23.096;2023-02-15T05:19:28;93260.19;;;4.99;51.69
61963;BME280;47927;42.646;23.096;2023-02-15T05:21:54;93267.84;;;5.13;51.63
61963;BME280;47927;42.646;23.096;2023-02-15T05:24:20;93275.78;;;5.25;51.07
61963;BME280;47927;42.646;23.096;2023-02-15T05:27:04;93277.44;;;4.90;51.80
61963;BME280;47927;42.646;23.096;2023-02-15T05:29:50;93277.06;;;5.05;51.45
61963;BME280;47927;42.646;23.096;2023-02-15T05:32:15;93276.56;;;4.94;51.70
61963;BME280;47927;42.646;23.096;2023-02-15T05:34:41;93276.59;;;4.72;52.74
61963;BME280;47927;42.646;23.096;2023-02-15T05:37:06;93279.75;;;4.91;52.17
61963;BME280;47927;42.646;23.096;2023-02-15T05:39:33;93286.16;;;5.02;52.15
61963;BME280;47927;42.646;23.096;2023-02-15T05:41:59;93281.41;;;5.18;51.50
61963;BME280;47927;42.646;23.096;2023-02-15T05:44:25;93286.22;;;5.11;51.57
61963;BME280;47927;42.646;23.096;2023-02-15T05:46:51;93286.88;;;5.25;51.19
61963;BME280;47927;42.646;23.096;2023-02-15T05:49:16;93292.38;;;5.24;51.19
61963;BME280;47927;42.646;23.096;2023-02-15T05:51:42;93294.75;;;5.20;51.34
61963;BME280;47927;42.646;23.096;2023-02-15T05:54:07;93295.28;;;5.00;51.88
61963;BME280;47927;42.646;23.096;2023-02-15T05:56:33;93265.72;;;4.84;51.86
61963;BME280;47927;42.646;23.096;2023-02-15T05:58:58;93292.78;;;4.86;52.11
61963;BME280;47927;42.646;23.096;2023-02-15T06:01:24;93296.47;;;4.94;52.36
61963;BME280;47927;42.646;23.096;2023-02-15T06:03:50;93285.81;;;5.18;51.52
61963;BME280;47927;42.646;23.096;2023-02-15T06:06:15;93292.19;;;5.20;51.18
61963;BME280;47927;42.646;23.096;2023-02-15T06:08:42;93293.44;;;5.32;50.98
61963;BME280;47927;42.646;23.096;2023-02-15T06:11:07;93299.59;;;5.44;50.62
61963;BME280;47927;42.646;23.096;2023-02-15T06:13:33;93295.47;;;5.43;50.72
61963;BME280;47927;42.646;23.096;2023-02-15T06:15:59;93304.63;;;5.58;50.10
61963;BME280;47927;42.646;23.096;2023-02-15T06:18:25;93301.31;;;5.66;49.91
61963;BME280;47927;42.646;23.096;2023-02-15T06:20:50;93306.19;;;5.59;49.88
61963;BME280;47927;42.646;23.096;2023-02-15T06:23:16;93309.94;;;5.53;50.15
61963;BME280;47927;42.646;23.096;2023-02-15T06:25:44;93310.09;;;5.48;50.50
61963;BME280;47927;42.646;23.096;2023-02-15T06:28:10;93303.84;;;5.49;50.46
61963;BME280;47927;42.646;23.096;2023-02-15T06:30:35;93301.09;;;5.45;50.13
61963;BME280;47927;42.646;23.096;2023-02-15T06:33:01;93300.78;;;5.07;51.10
61963;BME280;47927;42.646;23.096;2023-02-15T06:35:27;93297.72;;;5.05;51.39
61963;BME280;47927;42.646;23.096;2023-02-15T06:37:52;93298.97;;;5.39;50.53
61963;BME280;47927;42.646;23.096;2023-02-15T06:40:18;93303.28;;;5.61;50.22
61963;BME280;47927;42.646;23.096;2023-02-15T06:42:44;93299.97;;;5.69;49.32
61963;BME280;47927;42.646;23.096;2023-02-15T06:45:10;93305.03;;;5.91;49.31
61963;BME280;47927;42.646;23.096;2023-02-15T06:47:36;93293.06;;;5.96;48.92
61963;BME280;47927;42.646;23.096;2023-02-15T06:50:03;93300.50;;;5.97;48.83
61963;BME280;47927;42.646;23.096;2023-02-15T06:52:28;93298.06;;;6.01;48.51
61963;BME280;47927;42.646;23.096;2023-02-15T06:54:54;93296.56;;;6.08;48.40
61963;BME280;47927;42.646;23.096;2023-02-15T06:57:20;93297.94;;;6.23;48.13
61963;BME280;47927;42.646;23.096;2023-02-15T06:59:46;93296.44;;;6.31;47.85
61963;BME280;47927;42.646;23.096;2023-02-15T07:02:12;93305.41;;;6.33;47.89
61963;BME280;47927;42.646;23.096;2023-02-15T07:04:37;93297.63;;;6.33;47.50
61963;BME280;47927;42.646;23.096;2023-02-15T07:07:03;93278.75;;;6.15;47.60
61963;BME280;47927;42.646;23.096;2023-02-15T07:09:28;93302.50;;;6.26;47.54
61963;BME280;47927;42.646;23.096;2023-02-15T07:11:54;93310.91;;;6.41;47.39
61963;BME280;47927;42.646;23.096;2023-02-15T07:14:38;93312.88;;;6.35;47.64
61963;BME280;47927;42.646;23.096;2023-02-15T07:17:03;93319.28;;;6.55;47.13
61963;BME280;47927;42.646;23.096;2023-02-15T07:19:29;93312.75;;;6.57;47.03
61963;BME280;47927;42.646;23.096;2023-02-15T07:21:54;93315.28;;;6.66;46.68
61963;BME280;47927;42.646;23.096;2023-02-15T07:24:20;93321.25;;;6.58;46.78
61963;BME280;47927;42.646;23.096;2023-02-15T07:26:45;93318.97;;;6.65;46.37
61963;BME280;47927;42.646;23.096;2023-02-15T07:29:11;93308.16;;;6.20;47.17
61963;BME280;47927;42.646;23.096;2023-02-15T07:31:36;93307.69;;;6.26;47.47
61963;BME280;47927;42.646;23.096;2023-02-15T07:45:22;93314.41;;;6.45;46.79
61963;BME280;47927;42.646;23.096;2023-02-15T07:47:48;93312.56;;;6.71;46.32
61963;BME280;47927;42.646;23.096;2023-02-15T07:50:14;93307.81;;;6.99;45.43
61963;BME280;47927;42.646;23.096;2023-02-15T07:52:39;93308.81;;;7.16;45.25
61963;BME280;47927;42.646;23.096;2023-02-15T07:55:05;93304.41;;;7.16;45.10
61963;BME280;47927;42.646;23.096;2023-02-15T07:57:31;93302.16;;;7.06;45.09
61963;BME280;47927;42.646;23.096;2023-02-15T07:59:56;93303.50;;;7.12;45.13
61963;BME280;47927;42.646;23.096;2023-02-15T08:02:22;93298.06;;;6.96;45.20
61963;BME280;47927;42.646;23.096;2023-02-15T08:04:47;93294.34;;;7.15;44.96
61963;BME280;47927;42.646;23.096;2023-02-15T08:07:13;93294.88;;;6.91;45.32
61963;BME280;47927;42.646;23.096;2023-02-15T08:09:38;93290.69;;;7.07;44.99
61963;BME280;47927;42.646;23.096;2023-02-15T08:12:04;93295.88;;;7.16;44.46
61963;BME280;47927;42.646;23.096;2023-02-15T08:14:30;93299.72;;;6.92;45.41
61963;BME280;47927;42.646;23.096;2023-02-15T08:16:58;93306.41;;;7.02;45.25
61963;BME280;47927;42.646;23.096;2023-02-15T08:19:27;93302.28;;;7.10;44.90
61963;BME280;47927;42.646;23.096;2023-02-15T08:21:55;93300.31;;;7.06;44.73
61963;BME280;47927;42.646;23.096;2023-02-15T08:24:25;93307.84;;;7.38;44.30
61963;BME280;47927;42.646;23.096;2023-02-15T08:26:52;93309.66;;;7.37;44.42
61963;BME280;47927;42.646;23.096;2023-02-15T08:29:20;93309.59;;;7.16;44.56
61963;BME280;47927;42.646;23.096;2023-02-15T08:31:52;93311.44;;;6.98;44.95
61963;BME280;47927;42.646;23.096;2023-02-15T08:34:19;93315.34;;;7.22;44.78
61963;BME280;47927;42.646;23.096;2023-02-15T08:36:45;93291.09;;;6.71;45.26
61963;BME280;47927;42.646;23.096;2023-02-15T08:39:12;93265.34;;;6.57;44.97
61963;BME280;47927;42.646;23.096;2023-02-15T08:41:39;93316.63;;;7.07;45.00
61963;BME280;47927;42.646;23.096;2023-02-15T08:44:08;93319.69;;;7.00;44.84
61963;BME280;47927;42.646;23.096;2023-02-15T08:46:38;93315.25;;;7.10;44.70
61963;BME280;47927;42.646;23.096;2023-02-15T08:49:05;93323.38;;;6.73;45.35
61963;BME280;47927;42.646;23.096;2023-02-15T08:51:33;93322.16;;;6.88;45.23
61963;BME280;47927;42.646;23.096;2023-02-15T08:54:02;93316.75;;;7.19;44.54
61963;BME280;47927;42.646;23.096;2023-02-15T08:56:32;93312.41;;;7.41;44.06
61963;BME280;47927;42.646;23.096;2023-02-15T08:58:58;93307.00;;;7.54;43.95
61963;BME280;47927;42.646;23.096;2023-02-15T09:01:26;93324.78;;;7.35;44.33
61963;BME280;47927;42.646;23.096;2023-02-15T09:04:02;93320.25;;;7.23;44.25
61963;BME280;47927;42.646;23.096;2023-02-15T09:06:29;93317.97;;;7.60;43.55
61963;BME280;47927;42.646;23.096;2023-02-15T09:08:55;93321.94;;;7.58;43.54
61963;BME280;47927;42.646;23.096;2023-02-15T09:11:30;93325.53;;;7.36;44.01
61963;BME280;47927;42.646;23.096;2023-02-15T09:14:05;93328.50;;;7.55;44.05
61963;BME280;47927;42.646;23.096;2023-02-15T09:16:33;93277.53;;;7.29;43.61
61963;BME280;47927;42.646;23.096;2023-02-15T09:19:02;93325.59;;;7.10;44.37
61963;BME280;47927;42.646;23.096;2023-02-15T09:21:31;93333.53;;;7.13;44.67
61963;BME280;47927;42.646;23.096;2023-02-15T09:23:59;93324.25;;;7.59;43.75
61963;BME280;47927;42.646;23.096;2023-02-15T09:26:28;93310.41;;;7.46;43.45
61963;BME280;47927;42.646;23.096;2023-02-15T09:28:58;93322.34;;;7.77;42.99
61963;BME280;47927;42.646;23.096;2023-02-15T09:31:27;93325.28;;;7.96;42.99
61963;BME280;47927;42.646;23.096;2023-02-15T09:33:53;93325.94;;;8.14;42.87
61963;BME280;47927;42.646;23.096;2023-02-15T09:46:33;93327.56;;;7.98;42.61
61963;BME280;47927;42.646;23.096;2023-02-15T09:49:44;93308.78;;;8.01;42.26
61963;BME280;47927;42.646;23.096;2023-02-15T09:55:15;93322.28;;;8.45;41.98
61963;BME280;47927;42.646;23.096;2023-02-15T10:04:07;93315.66;;;8.48;41.49
61963;BME280;47927;42.646;23.096;2023-02-15T10:06:33;93317.25;;;8.61;41.43
61963;BME280;47927;42.646;23.096;2023-02-15T10:15:17;93312.06;;;7.51;43.49
61963;BME280;47927;42.646;23.096;2023-02-15T10:20:54;93318.69;;;7.99;42.15
61963;BME280;47927;42.646;23.096;2023-02-15T10:23:49;93324.19;;;8.27;41.63
61963;BME280;47927;42.646;23.096;2023-02-15T10:26:19;93309.06;;;8.50;41.01
61963;BME280;47927;42.646;23.096;2023-02-15T10:31:37;93307.84;;;8.89;40.47
61963;BME280;47927;42.646;23.096;2023-02-15T10:34:24;93304.72;;;8.96;40.04
61963;BME280;47927;42.646;23.096;2023-02-15T10:41:05;93297.16;;;8.28;41.42
61963;BME280;47927;42.646;23.096;2023-02-15T10:44:01;93289.13;;;8.96;40.58
61963;BME280;47927;42.646;23.096;2023-02-15T10:52:10;93279.00;;;11.42;36.40
61963;BME280;47927;42.646;23.096;2023-02-15T10:57:46;93273.19;;;11.96;35.08
61963;BME280;47927;42.646;23.096;2023-02-15T11:00:50;93281.16;;;11.08;36.12
61963;BME280;47927;42.646;23.096;2023-02-15T11:04:05;93278.09;;;10.75;37.00
61963;BME280;47927;42.646;23.096;2023-02-15T11:06:35;93276.72;;;10.65;37.25
61963;BME280;47927;42.646;23.096;2023-02-15T11:09:11;93250.53;;;10.21;36.91
61963;BME280;47927;42.646;23.096;2023-02-15T11:11:40;93274.31;;;10.19;38.38
61963;BME280;47927;42.646;23.096;2023-02-15T11:17:01;93272.47;;;10.88;37.06
61963;BME280;47927;42.646;23.096;2023-02-15T11:19:44;93267.16;;;10.85;36.80
61963;BME280;47927;42.646;23.096;2023-02-15T11:22:15;93264.53;;;11.29;36.01
61963;BME280;47927;42.646;23.096;2023-02-15T11:24:43;93262.13;;;12.03;35.13
61963;BME280;47927;42.646;23.096;2023-02-15T11:27:24;93256.03;;;11.63;34.47
61963;BME280;47927;42.646;23.096;2023-02-15T11:29:57;93252.59;;;11.28;35.49
61963;BME280;47927;42.646;23.096;2023-02-15T11:32:43;93250.06;;;11.15;36.43
61963;BME280;47927;42.646;23.096;2023-02-15T11:37:46;93250.63;;;10.37;37.87
61963;BME280;47927;42.646;23.096;2023-02-15T11:40:29;93245.72;;;9.46;39.16
61963;BME280;47927;42.646;23.096;2023-02-15T11:43:00;93247.25;;;9.84;38.68
61963;BME280;47927;42.646;23.096;2023-02-15T11:45:29;93237.97;;;10.11;38.44
61963;BME280;47927;42.646;23.096;2023-02-15T11:47:57;93245.03;;;10.10;38.13
61963;BME280;47927;42.646;23.096;2023-02-15T11:50:26;93239.53;;;9.99;38.96
61963;BME280;47927;42.646;23.096;2023-02-15T11:52:56;93238.31;;;10.09;38.84
61963;BME280;47927;42.646;23.096;2023-02-15T11:55:23;93231.97;;;10.35;38.50
61963;BME280;47927;42.646;23.096;2023-02-15T11:58:16;93233.97;;;10.13;39.01
61963;BME280;47927;42.646;23.096;2023-02-15T12:00:48;93211.81;;;10.19;37.71
61963;BME280;47927;42.646;23.096;2023-02-15T12:03:27;93227.94;;;10.37;38.75
61963;BME280;47927;42.646;23.096;2023-02-15T12:06:01;93228.59;;;10.34;39.06
61963;BME280;47927;42.646;23.096;2023-02-15T12:08:37;93227.53;;;9.70;40.04
61963;BME280;47927;42.646;23.096;2023-02-15T12:11:09;93223.50;;;9.11;41.05
61963;BME280;47927;42.646;23.096;2023-02-15T12:13:59;93218.44;;;9.40;40.62
61963;BME280;47927;42.646;23.096;2023-02-15T12:16:27;93205.84;;;9.54;40.34
61963;BME280;47927;42.646;23.096;2023-02-15T12:18:58;93206.41;;;10.12;39.18
61963;BME280;47927;42.646;23.096;2023-02-15T12:21:34;93205.69;;;9.99;39.30
61963;BME280;47927;42.646;23.096;2023-02-15T12:24:19;93203.16;;;9.50;40.57
61963;BME280;47927;42.646;23.096;2023-02-15T12:27:01;93205.09;;;9.66;40.21
61963;BME280;47927;42.646;23.096;2023-02-15T12:29:31;93202.47;;;9.78;40.06
61963;BME280;47927;42.646;23.096;2023-02-15T12:32:00;93196.94;;;10.20;39.59
61963;BME280;47927;42.646;23.096;2023-02-15T12:34:31;93200.09;;;9.48;40.15
61963;BME280;47927;42.646;23.096;2023-02-15T12:37:01;93198.06;;;9.29;41.14
61963;BME280;47927;42.646;23.096;2023-02-15T12:39:32;93198.78;;;9.79;40.33
61963;BME280;47927;42.646;23.096;2023-02-15T12:42:03;93191.44;;;10.09;39.36
61963;BME280;47927;42.646;23.096;2023-02-15T12:44:35;93185.09;;;9.94;39.37
61963;BME280;47927;42.646;23.096;2023-02-15T12:47:06;93194.69;;;9.66;40.19
61963;BME280;47927;42.646;23.096;2023-02-15T12:49:44;93182.25;;;9.99;39.06
61963;BME280;47927;42.646;23.096;2023-02-15T12:54:46;93173.59;;;10.80;38.84
61963;BME280;47927;42.646;23.096;2023-02-15T12:57:25;93162.16;;;10.40;39.49
61963;BME280;47927;42.646;23.096;2023-02-15T13:00:23;93172.34;;;10.17;40.07
61963;BME280;47927;42.646;23.096;2023-02-15T13:02:55;93171.19;;;10.02;40.39
61963;BME280;47927;42.646;23.096;2023-02-15T13:05:38;93171.31;;;10.34;39.29
61963;BME280;47927;42.646;23.096;2023-02-15T13:08:17;93167.56;;;10.47;39.91
61963;BME280;47927;42.646;23.096;2023-02-15T13:11:02;93163.72;;;10.29;39.95
61963;BME280;47927;42.646;23.096;2023-02-15T13:13:31;93162.81;;;10.09;39.84
61963;BME280;47927;42.646;23.096;2023-02-15T13:16:02;93155.75;;;9.81;40.22
61963;BME280;47927;42.646;23.096;2023-02-15T13:18:36;93167.09;;;9.89;41.31
61963;BME280;47927;42.646;23.096;2023-02-15T13:21:13;93169.59;;;9.86;40.55
61963;BME280;47927;42.646;23.096;2023-02-15T13:23:44;93173.59;;;9.95;40.80
61963;BME280;47927;42.646;23.096;2023-02-15T13:26:15;93173.63;;;9.83;39.09
61963;BME280;47927;42.646;23.096;2023-02-15T13:29:10;93174.78;;;9.98;40.48
61963;BME280;47927;42.646;23.096;2023-02-15T13:31:39;93161.06;;;9.61;40.76
61963;BME280;47927;42.646;23.096;2023-02-15T13:34:19;93174.66;;;9.42;41.50
61963;BME280;47927;42.646;23.096;2023-02-15T13:37:01;93176.50;;;9.53;40.94
61963;BME280;47927;42.646;23.096;2023-02-15T13:40:25;93185.47;;;9.56;41.84
61963;BME280;47927;42.646;23.096;2023-02-15T13:43:01;93181.50;;;9.46;41.69
61963;BME280;47927;42.646;23.096;2023-02-15T13:45:36;93176.16;;;9.43;41.22
61963;BME280;47927;42.646;23.096;2023-02-15T13:48:14;93179.00;;;9.38;41.67
61963;BME280;47927;42.646;23.096;2023-02-15T13:59:22;93180.50;;;8.44;44.44
61963;BME280;47927;42.646;23.096;2023-02-15T14:08:44;93189.31;;;8.31;44.42
61963;BME280;47927;42.646;23.096;2023-02-15T14:22:07;93208.97;;;7.48;46.58
61963;BME280;47927;42.646;23.096;2023-02-15T14:27:31;93217.78;;;7.26;47.38
61963;BME280;47927;42.646;23.096;2023-02-15T14:30:12;93213.88;;;7.70;46.52
61963;BME280;47927;42.646;23.096;2023-02-15T14:35:50;93210.03;;;6.79;48.89
61963;BME280;47927;42.646;23.096;2023-02-15T14:44:24;93201.97;;;6.63;48.83
61963;BME280;47927;42.646;23.096;2023-02-15T14:47:10;93198.06;;;6.95;48.23
61963;BME280;47927;42.646;23.096;2023-02-15T14:49:39;93194.03;;;7.15;47.81
61963;BME280;47927;42.646;23.096;2023-02-15T14:52:08;93196.94;;;6.75;48.83
61963;BME280;47927;42.646;23.096;2023-02-15T15:02:29;93192.06;;;6.74;48.53
61963;BME280;47927;42.646;23.096;2023-02-15T15:07:50;93195.28;;;6.62;48.53
61963;BME280;47927;42.646;23.096;2023-02-15T15:12:43;93198.78;;;6.66;48.92
61963;BME280;47927;42.646;23.096;2023-02-15T15:20:48;93195.47;;;5.79;50.89
61963;BME280;47927;42.646;23.096;2023-02-15T15:25:47;93204.94;;;5.92;50.23
61963;BME280;47927;42.646;23.096;2023-02-15T15:31:35;93196.72;;;5.81;50.35
61963;BME280;47927;42.646;23.096;2023-02-15T15:43:08;93222.66;;;5.41;51.62
61963;BME280;47927;42.646;23.096;2023-02-15T15:45:54;93213.72;;;5.82;50.49
61963;BME280;47927;42.646;23.096;2023-02-15T15:48:35;93215.28;;;5.83;50.30
61963;BME280;47927;42.646;23.096;2023-02-15T15:53:38;93223.84;;;5.44;51.09
61963;BME280;47927;42.646;23.096;2023-02-15T15:56:11;93219.03;;;5.60;50.52
61963;BME280;47927;42.646;23.096;2023-02-15T15:58:43;93224.78;;;5.39;50.91